Stations météo

réclame
Mon MeteoGroup
Kvikkjokk Arrenjarka A, Suède (2119): Température de l'air: 18.01.2018 10:00:00 - 24.01.2018 10:00:00 (CET)Kvikkjokk Arrenjarka A, Suède (2119): Vitesse du vent & gusts: 18.01.2018 10:00:00 - 24.01.2018 10:00:00 (CET)Kvikkjokk Arrenjarka A, Suède (2119): Direction du vent: 18.01.2018 10:00:00 - 24.01.2018 10:00:00 (CET)Kvikkjokk Arrenjarka A, Suède (2119): reduced air pressure: 18.01.2018 10:00:00 - 24.01.2018 10:00:00 (CET)Kvikkjokk Arrenjarka A, Suède (2119): visibility: 18.01.2018 10:00:00 - 24.01.2018 10:00:00 (CET)Kvikkjokk Arrenjarka A, Suède (2119): Quantités de précipitations: 18.01.2018 10:00:00 - 24.01.2018 10:00:00 (CET)
Date & Time tt [°C] ff [km/h] ff [knt] fx [km/h] fx [knt] dd ppp [hPa] vv [km] rr [mm]
24.01.2018 10:00:00 -21,4 2 1 5 3 WSW 999,5 1,6 0,3
24.01.2018 09:00:00 -22,2 2 1 4 2 NW 1000,4 1,0 0,5
24.01.2018 08:00:00 -22,8 1 0 4 2 SW 1001,6 1,4 0,4
24.01.2018 07:00:00 -23,2 3 1 5 3 SW 1002,5 1,3 0,3
24.01.2018 06:00:00 -23,4 2 1 4 2 WSW 1003,3 0,8 0,2
24.01.2018 05:00:00 -23,9 3 1 4 2 SSE 1004,1 1,0 0,2
24.01.2018 04:00:00 -24,4 1 1 5 3 WNW 1005,1 1,3 0,2
24.01.2018 03:00:00 -25,1 3 2 9 5 NW 1006,1 1,2 0,2
24.01.2018 02:00:00 -26,3 1 1 9 5 WSW 1007,1 2,5 0,2
24.01.2018 01:00:00 -27,8 4 2 7 4 SE 1008,2 8 0,1
24.01.2018 00:00:00 -30,4 3 1 6 4 S 1009,5 12 0,2
23.01.2018 23:00:00 -32,5 3 2 7 4 S 1010,9 10 0,0
23.01.2018 22:00:00 -36,7 2 1 6 3 SSW 1011,5 29 0,0
23.01.2018 21:00:00 -37,1 4 2 8 4 SSW 1012,0 28 0,0
23.01.2018 20:00:00 -37,0 3 1 6 4 E 1012,4 21 0,0
23.01.2018 19:00:00 -36,8 3 2 5 3 NW 1012,9 32 0,0
23.01.2018 18:00:00 -36,6 1 1 5 3 SSW 1013,4 26 0,0
23.01.2018 17:00:00 -36,1 3 2 6 3 SSW 1013,4 33 0,0
23.01.2018 16:00:00 -36,2 1 1 3 2 NNE 1013,8 28 0,0
23.01.2018 15:00:00 -35,7 1 1 4 2 N 1014,2 28 0,0
23.01.2018 14:00:00 -35,0 3 1 4 2 WSW 1014,6 29 0,0
23.01.2018 13:00:00 -35,5 2 1 4 2 SE 1015,2 27 0,0
23.01.2018 12:00:00 -35,7 3 1 5 3 SE 1015,9 24 0,0
23.01.2018 11:00:00 -36,3 1 1 3 2 WNW 1016,3 30 0,0
23.01.2018 10:00:00 -37,2 4 2 5 3 WNW 1016,5 37 0,0
23.01.2018 09:00:00 -37,7 2 1 4 2 SE 1017,0 33 0,0
23.01.2018 08:00:00 -37,7 2 1 4 2 ESE 1017,3 30 0,0
23.01.2018 07:00:00 -37,6 3 1 6 4 S 1017,4 31 0,0
23.01.2018 06:00:00 -37,5 4 2 5 3 NW 1017,7 29 0,0
23.01.2018 05:00:00 -37,1 1 1 6 4 WSW 1018,0 31 0,0
23.01.2018 04:00:00 -37,2 3 1 6 3 W 1018,5 28 0,0
23.01.2018 03:00:00 -36,8 1 1 3 2 NW 1018,5 30 0,0
23.01.2018 02:00:00 -36,4 1 1 5 3 NW 1018,5 31 0,0
23.01.2018 01:00:00 -36,3 3 1 4 2 NW 1018,8 29 0,0
23.01.2018 00:00:00 -36,0 2 1 5 3 W 1019,0 31 0,0
22.01.2018 23:00:00 -35,7 2 1 5 3 SW 1019,2 28 0,0
22.01.2018 22:00:00 -35,3 3 2 4 2 NW 1019,1 27 0,0
22.01.2018 21:00:00 -34,8 2 1 5 3 NW 1019,1 28 0,0
22.01.2018 20:00:00 -34,1 3 1 5 3 NW 1019,0 26 0,0
22.01.2018 19:00:00 -33,9 3 1 5 3 NW 1019,0 17 0,0
22.01.2018 18:00:00 -33,3 2 1 4 2 WNW 1018,9 19 0,0
22.01.2018 17:00:00 -32,5 4 2 6 4 WNW 1018,5 26 0,0
22.01.2018 16:00:00 -31,6 1 1 5 3 ESE 1018,2 23 0,0
22.01.2018 15:00:00 -30,2 2 1 6 3 WNW 1017,8 21 0,0
22.01.2018 14:00:00 -28,5 3 1 6 3 NNE 1017,6 18 0,0
22.01.2018 13:00:00 -27,1 2 1 7 4 W 1017,4 17 0,0
22.01.2018 12:00:00 -26,0 3 2 6 3 NW 1017,1 14 0,0
22.01.2018 11:00:00 -23,8 3 1 4 2 N 1017,0 2,2 0,0
22.01.2018 10:00:00 -20,5 1 1 8 4 W 1016,7 3,3 0,0
22.01.2018 09:00:00 -20,6 4 2 7 4 SSE 1016,3 8 0,0
22.01.2018 08:00:00 -21,0 1 1 6 3 W 1016,4 4,4 0,0
22.01.2018 07:00:00 -21,3 4 2 5 3 SSE 1016,3 3,4 0,0
22.01.2018 06:00:00 -21,5 2 1 4 2 ESE 1016,3 2,6 0,0
22.01.2018 05:00:00 -22,0 1 0 5 3 ENE 1016,2 5 0,1
22.01.2018 04:00:00 -22,3 1 1 4 2 NNW 1016,3 2,7 0,0
22.01.2018 03:00:00 -23,0 1 1 6 3 ESE 1016,9 4,0 0,0
22.01.2018 02:00:00 -23,3 3 1 8 4 N 1016,8 4,1 0,0
22.01.2018 01:00:00 -24,0 3 2 5 3 S 1017,1 2,6 0,1
22.01.2018 00:00:00 -24,9 1 1 4 2 W 1017,4 1,4 0,1
21.01.2018 23:00:00 -25,8 1 1 3 2 WNW 1017,6 2,9 0,1
21.01.2018 22:00:00 -26,9 1 1 5 3 ESE 1017,7 1,8 0,0
21.01.2018 21:00:00 -30,3 2 1 5 3 NW 1017,7 18 0,0
21.01.2018 20:00:00 -29,6 2 1 5 3 SW 1017,6 7 0,0
21.01.2018 19:00:00 -28,9 3 2 5 3 NW 1017,4 7 0,0
21.01.2018 18:00:00 -28,4 3 1 5 3 NNW 1017,3 21 0,0
21.01.2018 17:00:00 -27,1 4 2 7 4 WNW 1016,8 19 0,0
21.01.2018 16:00:00 -24,8 4 2 6 3 WNW 1016,5 8 0,0
21.01.2018 15:00:00 -22,1 3 2 5 3 W 1015,9 3,7 0,0
21.01.2018 14:00:00 -19,1 3 1 4 2 WNW 1015,5 5 0,0
21.01.2018 13:00:00 -18,3 3 1 6 4 NNW 1015,2 7 0,0
21.01.2018 12:00:00 -17,2 2 1 3 2 WNW 1015,2 3,5 0,0
21.01.2018 11:00:00 -16,7 1 1 3 1 NW 1015,0 3,9 0,0
21.01.2018 10:00:00 -16,9 1 1 4 2 NNE 1015,0 1,6 0,0
21.01.2018 09:00:00 -16,8 3 1 4 2 W 1014,6 1,6 0,0
21.01.2018 08:00:00 -16,3 1 1 3 2 N 1014,4 1,9 0,0
21.01.2018 07:00:00 -16,0 1 0 4 2 ENE 1014,2 2,3 0,0
21.01.2018 06:00:00 -16,3 1 1 3 1 W 1014,2 3,8 0,0
21.01.2018 05:00:00 -16,2 1 1 3 2 SE 1014,0 5 0,0
21.01.2018 04:00:00 -16,2 1 1 3 1 NNE 1014,0 5 0,0
21.01.2018 03:00:00 -16,3 2 1 6 3 NW 1013,9 4,8 0,0
21.01.2018 02:00:00 -16,4 3 1 5 3 WNW 1014,0 5 0,0
21.01.2018 01:00:00 -16,3 1 1 4 2 N 1014,1 4,2 0,1
21.01.2018 00:00:00 -16,4 2 1 7 4 SSW 1014,2 6 0,0
20.01.2018 23:00:00 -16,5 2 1 4 2 WSW 1014,0 2,9 0,0
20.01.2018 22:00:00 -16,6 1 0 2 1 NNW 1014,1 2,2 0,0
20.01.2018 21:00:00 -16,8 2 1 5 3 WSW 1013,9 1,5 0,1
20.01.2018 20:00:00 -17,0 2 1 4 2 NW 1014,0 3,0 0,0
20.01.2018 19:00:00 -17,0 1 1 4 2 WNW 1013,8 3,8 0,0
20.01.2018 18:00:00 -17,2 1 1 5 3 SSW 1013,8 2,6 0,0
20.01.2018 17:00:00 -17,5 2 1 3 2 NW 1013,9 1,7 0,0
20.01.2018 16:00:00 -17,2 2 1 4 2 SW 1013,7 1,2 0,0
20.01.2018 15:00:00 -17,1 3 1 4 2 SSE 1013,7 2,7 0,1
20.01.2018 14:00:00 -17,0 1 1 4 2 NNW 1013,4 3,0 0,0
20.01.2018 13:00:00 -17,2 2 1 4 2 SSW 1013,4 2,2 0,1
20.01.2018 12:00:00 -17,4 1 1 6 4 S 1013,5 1,7 0,1
20.01.2018 11:00:00 -17,7 2 1 3 2 SSE 1013,9 1,8 0,0
20.01.2018 10:00:00 -18,2 1 1 4 2 SSW 1013,7 1,2 0,2
20.01.2018 09:00:00 -18,6 1 1 3 2 NNW 1013,3 1,1 0,0
20.01.2018 08:00:00 -19,0 1 0 4 2 SSE 1012,9 0,9 0,1
20.01.2018 07:00:00 -18,6 1 1 3 2 S 1012,5 0,8 0,2
20.01.2018 06:00:00 -18,7 1 1 4 2 SE 1012,5 1,4 0,0
20.01.2018 05:00:00 -19,0 1 1 3 2 E 1012,2 1,5 0,1
20.01.2018 04:00:00 -19,1 1 1 2 1 W 1011,9 0,8 0,1
20.01.2018 03:00:00 -19,1 2 1 4 2 SSE 1011,7 0,9 0,1
20.01.2018 02:00:00 -19,3 2 1 4 2 NE 1011,4 1,6 0,1
20.01.2018 01:00:00 -19,5 1 1 5 3 SSW 1011,2 1,3 0,0
20.01.2018 00:00:00 -20,2 1 1 4 2 ESE 1010,7 1,1 0,0
19.01.2018 23:00:00 -19,9 1 1 4 2 WSW 1010,6 2,0 0,0
19.01.2018 22:00:00 -19,7 1 0 5 3 ESE 1010,1 1,5 0,1
19.01.2018 21:00:00 -19,9 3 2 4 2 NW 1010,0 1,9 0,0
19.01.2018 20:00:00 -20,1 1 1 3 2 NE 1009,6 1,9 0,0
19.01.2018 19:00:00 -19,7 1 1 6 4 ENE 1009,1 3,0 0,0
19.01.2018 18:00:00 -20,2 3 1 7 4 NE 1009,2 3,9 0,1
19.01.2018 17:00:00 -20,2 2 1 4 2 SSW 1008,8 3,2 0,1
19.01.2018 16:00:00 -20,5 3 1 4 2 ESE 1008,7 4,5 0,1
19.01.2018 15:00:00 -21,8 2 1 5 3 NW 1008,5 2,1 0,0
19.01.2018 14:00:00 -24,9 3 2 5 3 NW 1008,7 19 0,0
19.01.2018 13:00:00 -24,3 4 2 6 3 WNW 1008,1 19 0,0
19.01.2018 12:00:00 -22,0 3 2 5 3 WNW 1007,8 9 0,0
19.01.2018 11:00:00 -19,4 1 0 5 3 SW 1007,7 2,2 0,1
19.01.2018 10:00:00 -19,4 1 1 4 2 N 1007,5 1,2 0,0
19.01.2018 09:00:00 -19,8 3 1 5 3 S 1007,2 0,8 0,0
19.01.2018 08:00:00 -19,7 2 1 3 2 SSW 1006,8 1,1 0,2
19.01.2018 07:00:00 -19,3 2 1 3 2 SW 1006,4 1,3 0,1
19.01.2018 06:00:00 -20,4 3 2 5 3 WNW 1006,5 1,7 0,2
19.01.2018 05:00:00 -20,9 1 1 6 3 NNE 1006,5 3,1 0,1
19.01.2018 04:00:00 -22,7 4 2 5 3 NW 1006,8 8 0,1
19.01.2018 03:00:00 -21,6 1 1 5 3 WNW 1006,8 4,8 0,1
19.01.2018 02:00:00 -21,3 5 3 6 3 WNW 1006,6 4,5 0,0
19.01.2018 01:00:00 -19,0 3 2 5 3 NW 1006,4 3,0 0,1
19.01.2018 00:00:00 -17,6 2 1 3 1 W 1006,4 0,8 0,1
18.01.2018 23:00:00 -17,0 1 0 4 2 S 1006,6 0,7 0,0
18.01.2018 22:00:00 -17,0 1 1 4 2 NNW 1006,6 2,5 0,0
18.01.2018 21:00:00 -16,4 1 1 8 5 ENE 1006,5 2,6 0,1
18.01.2018 20:00:00 -16,5 2 1 5 3 NNE 1006,1 1,9 0,2
18.01.2018 19:00:00 -17,0 4 2 6 4 WNW 1005,9 0,9 0,0
18.01.2018 18:00:00 -17,7 3 2 6 3 NW 1005,6 1,2 0,0
18.01.2018 17:00:00 -16,7 3 1 5 3 N 1005,7 1,6 0,0
18.01.2018 16:00:00 -16,0 2 1 6 3 NW 1005,6 1,0 0,1
18.01.2018 15:00:00 -15,4 3 1 6 4 NW 1005,4 0,6 0,1
18.01.2018 14:00:00 -14,1 5 3 10 6 ENE 1005,1 1,5 0,0
18.01.2018 13:00:00 -13,9 5 3 10 6 E 1005,0 2,0 0,1
18.01.2018 12:00:00 -14,0 3 2 10 5 E 1004,8 3,0 0,1
18.01.2018 11:00:00 -14,2 5 3 13 7 E 1004,7 - 0,0
18.01.2018 10:00:00 -13,9 6 3 13 7 ESE 1004,6 6 0,1

tt = Température de l'air
ff = Vitesse du vent
fx = gusts
dd = Direction du vent
ppp = reduced air pressure
vv = visibility
rr = Quantités de précipitations

stations d'obs. à proximité